sensor_id;sensor_type;location;lat;lon;timestamp;pressure;altitude;pressure_sealevel;temperature;humidity
65394;BME280;52002;49.760;6.512;2023-03-24T00:02:09;98787.80;;;20.02;51.40
65394;BME280;52002;49.760;6.512;2023-03-24T00:04:35;98783.36;;;20.04;51.32
65394;BME280;52002;49.760;6.512;2023-03-24T00:07:01;98783.77;;;20.07;51.33
65394;BME280;52002;49.760;6.512;2023-03-24T00:09:28;98774.44;;;20.10;51.37
65394;BME280;52002;49.760;6.512;2023-03-24T00:11:55;98768.65;;;20.14;51.35
65394;BME280;52002;49.760;6.512;2023-03-24T00:14:20;98765.25;;;20.15;51.29
65394;BME280;52002;49.760;6.512;2023-03-24T00:16:45;98760.67;;;20.16;51.20
65394;BME280;52002;49.760;6.512;2023-03-24T00:19:12;98767.23;;;20.20;51.31
65394;BME280;52002;49.760;6.512;2023-03-24T00:21:40;98763.94;;;20.22;51.13
65394;BME280;52002;49.760;6.512;2023-03-24T00:24:07;98767.74;;;20.22;51.20
65394;BME280;52002;49.760;6.512;2023-03-24T00:26:34;98764.02;;;20.22;51.19
65394;BME280;52002;49.760;6.512;2023-03-24T00:29:02;98762.38;;;20.24;51.21
65394;BME280;52002;49.760;6.512;2023-03-24T00:31:29;98757.82;;;20.25;51.12
65394;BME280;52002;49.760;6.512;2023-03-24T00:33:55;98757.03;;;20.24;51.18
65394;BME280;52002;49.760;6.512;2023-03-24T00:36:23;98751.70;;;20.24;51.17
65394;BME280;52002;49.760;6.512;2023-03-24T00:38:50;98750.20;;;20.27;51.11
65394;BME280;52002;49.760;6.512;2023-03-24T00:41:16;98748.59;;;20.27;51.06
65394;BME280;52002;49.760;6.512;2023-03-24T00:43:45;98741.10;;;20.25;51.16
65394;BME280;52002;49.760;6.512;2023-03-24T00:46:12;98740.27;;;20.24;51.13
65394;BME280;52002;49.760;6.512;2023-03-24T00:48:56;98739.21;;;20.25;51.04
65394;BME280;52002;49.760;6.512;2023-03-24T00:51:27;98742.18;;;20.25;51.05
65394;BME280;52002;49.760;6.512;2023-03-24T00:53:53;98740.98;;;20.24;51.05
65394;BME280;52002;49.760;6.512;2023-03-24T00:56:26;98735.25;;;20.23;51.15
65394;BME280;52002;49.760;6.512;2023-03-24T00:58:53;98735.59;;;20.23;51.06
65394;BME280;52002;49.760;6.512;2023-03-24T01:01:23;98735.33;;;20.23;51.01
65394;BME280;52002;49.760;6.512;2023-03-24T01:03:48;98733.02;;;20.22;51.11
65394;BME280;52002;49.760;6.512;2023-03-24T01:06:15;98729.45;;;20.21;51.12
65394;BME280;52002;49.760;6.512;2023-03-24T01:08:43;98726.38;;;20.20;51.14
65394;BME280;52002;49.760;6.512;2023-03-24T01:11:10;98719.70;;;20.20;51.20
65394;BME280;52002;49.760;6.512;2023-03-24T01:13:37;98704.23;;;20.20;51.12
65394;BME280;52002;49.760;6.512;2023-03-24T01:16:04;98696.70;;;20.20;51.10
65394;BME280;52002;49.760;6.512;2023-03-24T01:18:31;98693.27;;;20.20;51.21
65394;BME280;52002;49.760;6.512;2023-03-24T01:20:56;98690.88;;;20.21;51.24
65394;BME280;52002;49.760;6.512;2023-03-24T01:23:24;98684.83;;;20.22;51.15
65394;BME280;52002;49.760;6.512;2023-03-24T01:25:51;98680.64;;;20.23;51.28
65394;BME280;52002;49.760;6.512;2023-03-24T01:28:19;98676.58;;;20.25;51.31
65394;BME280;52002;49.760;6.512;2023-03-24T01:30:50;98673.05;;;20.27;51.34
65394;BME280;52002;49.760;6.512;2023-03-24T01:33:15;98674.90;;;20.27;51.26
65394;BME280;52002;49.760;6.512;2023-03-24T01:35:41;98678.52;;;20.29;51.24
65394;BME280;52002;49.760;6.512;2023-03-24T01:38:09;98675.61;;;20.30;51.34
65394;BME280;52002;49.760;6.512;2023-03-24T01:40:39;98680.57;;;20.31;51.32
65394;BME280;52002;49.760;6.512;2023-03-24T01:43:06;98674.30;;;20.31;51.24
65394;BME280;52002;49.760;6.512;2023-03-24T01:47:58;98676.48;;;20.31;51.29
65394;BME280;52002;49.760;6.512;2023-03-24T01:50:23;98672.80;;;20.32;51.22
65394;BME280;52002;49.760;6.512;2023-03-24T01:52:49;98667.46;;;20.31;51.12
65394;BME280;52002;49.760;6.512;2023-03-24T01:55:16;98656.19;;;20.31;51.25
65394;BME280;52002;49.760;6.512;2023-03-24T01:57:50;98655.64;;;20.31;51.28
65394;BME280;52002;49.760;6.512;2023-03-24T02:00:19;98653.52;;;20.30;51.25
65394;BME280;52002;49.760;6.512;2023-03-24T02:02:53;98648.77;;;20.31;51.33
65394;BME280;52002;49.760;6.512;2023-03-24T02:05:28;98647.11;;;20.30;51.23
65394;BME280;52002;49.760;6.512;2023-03-24T02:10:33;98642.10;;;20.29;51.27
65394;BME280;52002;49.760;6.512;2023-03-24T02:12:59;98635.65;;;20.29;51.15
65394;BME280;52002;49.760;6.512;2023-03-24T02:15:27;98638.21;;;20.28;51.17
65394;BME280;52002;49.760;6.512;2023-03-24T02:26:54;98650.31;;;20.24;51.33
65394;BME280;52002;49.760;6.512;2023-03-24T02:40:39;98661.58;;;20.21;51.31
65394;BME280;52002;49.760;6.512;2023-03-24T02:48:36;98663.29;;;20.18;51.42
65394;BME280;52002;49.760;6.512;2023-03-24T02:51:25;98661.46;;;20.17;51.44
65394;BME280;52002;49.760;6.512;2023-03-24T02:57:18;98663.52;;;20.16;51.49
65394;BME280;52002;49.760;6.512;2023-03-24T03:00:02;98668.96;;;20.17;51.57
65394;BME280;52002;49.760;6.512;2023-03-24T03:02:38;98664.40;;;20.19;51.60
65394;BME280;52002;49.760;6.512;2023-03-24T03:05:12;98668.48;;;20.20;51.65
65394;BME280;52002;49.760;6.512;2023-03-24T03:07:42;98669.30;;;20.23;51.78
65394;BME280;52002;49.760;6.512;2023-03-24T03:10:17;98665.02;;;20.25;51.80
65394;BME280;52002;49.760;6.512;2023-03-24T03:12:48;98665.77;;;20.26;51.78
65394;BME280;52002;49.760;6.512;2023-03-24T03:15:21;98660.41;;;20.27;51.86
65394;BME280;52002;49.760;6.512;2023-03-24T03:17:53;98658.80;;;20.28;51.86
65394;BME280;52002;49.760;6.512;2023-03-24T03:20:23;98651.57;;;20.29;51.83
65394;BME280;52002;49.760;6.512;2023-03-24T03:23:12;98649.78;;;20.29;51.71
65394;BME280;52002;49.760;6.512;2023-03-24T03:25:42;98646.52;;;20.28;51.67
65394;BME280;52002;49.760;6.512;2023-03-24T03:28:15;98641.45;;;20.29;51.81
65394;BME280;52002;49.760;6.512;2023-03-24T03:30:53;98637.94;;;20.29;51.67
65394;BME280;52002;49.760;6.512;2023-03-24T03:33:29;98636.17;;;20.30;51.60
65394;BME280;52002;49.760;6.512;2023-03-24T03:36:06;98633.48;;;20.29;51.61
65394;BME280;52002;49.760;6.512;2023-03-24T03:41:23;98627.14;;;20.29;51.51
65394;BME280;52002;49.760;6.512;2023-03-24T03:43:49;98630.26;;;20.28;51.63
65394;BME280;52002;49.760;6.512;2023-03-24T03:46:15;98644.71;;;20.28;51.63
65394;BME280;52002;49.760;6.512;2023-03-24T03:48:42;98645.97;;;20.28;51.62
65394;BME280;52002;49.760;6.512;2023-03-24T03:51:08;98643.14;;;20.27;51.52
65394;BME280;52002;49.760;6.512;2023-03-24T03:56:05;98650.36;;;20.26;51.68
65394;BME280;52002;49.760;6.512;2023-03-24T03:58:32;98647.49;;;20.26;51.56
65394;BME280;52002;49.760;6.512;2023-03-24T04:00:57;98646.60;;;20.25;51.64
65394;BME280;52002;49.760;6.512;2023-03-24T04:03:35;98638.23;;;20.24;51.63
65394;BME280;52002;49.760;6.512;2023-03-24T04:06:21;98639.50;;;20.23;51.72
65394;BME280;52002;49.760;6.512;2023-03-24T04:09:04;98651.05;;;20.23;51.61
65394;BME280;52002;49.760;6.512;2023-03-24T04:20:08;98663.13;;;20.21;51.62
65394;BME280;52002;49.760;6.512;2023-03-24T04:30:53;98671.49;;;20.15;51.76
65394;BME280;52002;49.760;6.512;2023-03-24T04:36:25;98675.88;;;20.12;51.70
65394;BME280;52002;49.760;6.512;2023-03-24T04:38:52;98671.77;;;20.12;51.65
65394;BME280;52002;49.760;6.512;2023-03-24T04:41:24;98666.20;;;20.13;51.74
65394;BME280;52002;49.760;6.512;2023-03-24T04:43:51;98668.08;;;20.13;51.73
65394;BME280;52002;49.760;6.512;2023-03-24T04:46:20;98673.11;;;20.14;51.84
65394;BME280;52002;49.760;6.512;2023-03-24T04:48:46;98672.56;;;20.16;51.93
65394;BME280;52002;49.760;6.512;2023-03-24T04:51:18;98677.61;;;20.19;51.90
65394;BME280;52002;49.760;6.512;2023-03-24T04:53:44;98679.60;;;20.20;51.85
65394;BME280;52002;49.760;6.512;2023-03-24T04:58:53;98677.50;;;20.24;51.88
65394;BME280;52002;49.760;6.512;2023-03-24T05:01:19;98682.11;;;20.25;51.94
65394;BME280;52002;49.760;6.512;2023-03-24T05:03:46;98681.52;;;20.26;51.89
65394;BME280;52002;49.760;6.512;2023-03-24T05:06:12;98683.05;;;20.26;51.96
65394;BME280;52002;49.760;6.512;2023-03-24T05:08:38;98675.25;;;20.26;51.94
65394;BME280;52002;49.760;6.512;2023-03-24T05:11:05;98669.53;;;20.27;51.80
65394;BME280;52002;49.760;6.512;2023-03-24T05:13:30;98673.96;;;20.27;51.79
65394;BME280;52002;49.760;6.512;2023-03-24T05:15:56;98686.42;;;20.27;51.77
65394;BME280;52002;49.760;6.512;2023-03-24T05:18:22;98685.83;;;20.27;51.87
65394;BME280;52002;49.760;6.512;2023-03-24T05:20:47;98678.25;;;20.27;51.75
65394;BME280;52002;49.760;6.512;2023-03-24T05:23:13;98687.55;;;20.26;51.87
65394;BME280;52002;49.760;6.512;2023-03-24T05:25:38;98688.73;;;20.26;51.84
65394;BME280;52002;49.760;6.512;2023-03-24T05:28:04;98685.64;;;20.26;51.85
65394;BME280;52002;49.760;6.512;2023-03-24T05:30:30;98683.30;;;20.26;51.79
65394;BME280;52002;49.760;6.512;2023-03-24T05:32:56;98683.11;;;20.25;51.64
65394;BME280;52002;49.760;6.512;2023-03-24T05:35:21;98680.00;;;20.24;51.79
65394;BME280;52002;49.760;6.512;2023-03-24T05:37:47;98687.55;;;20.24;51.79
65394;BME280;52002;49.760;6.512;2023-03-24T05:40:12;98686.72;;;20.24;51.82
65394;BME280;52002;49.760;6.512;2023-03-24T05:42:39;98688.02;;;20.23;51.85
65394;BME280;52002;49.760;6.512;2023-03-24T05:45:05;98691.04;;;20.22;51.81
65394;BME280;52002;49.760;6.512;2023-03-24T05:47:31;98683.82;;;20.22;51.81
65394;BME280;52002;49.760;6.512;2023-03-24T05:49:56;98692.30;;;20.21;51.76
65394;BME280;52002;49.760;6.512;2023-03-24T05:52:22;98695.58;;;20.20;51.83
65394;BME280;52002;49.760;6.512;2023-03-24T05:54:47;98695.58;;;20.18;51.70
65394;BME280;52002;49.760;6.512;2023-03-24T05:57:17;98702.43;;;20.17;51.82
65394;BME280;52002;49.760;6.512;2023-03-24T05:59:43;98697.79;;;20.18;51.77
65394;BME280;52002;49.760;6.512;2023-03-24T06:02:08;98704.61;;;20.17;51.74
65394;BME280;52002;49.760;6.512;2023-03-24T06:04:34;98707.61;;;20.16;51.80
65394;BME280;52002;49.760;6.512;2023-03-24T06:07:00;98710.59;;;20.16;51.77
65394;BME280;52002;49.760;6.512;2023-03-24T06:09:30;98711.39;;;20.15;51.75
65394;BME280;52002;49.760;6.512;2023-03-24T06:12:08;98709.41;;;20.14;51.69
65394;BME280;52002;49.760;6.512;2023-03-24T06:14:34;98711.84;;;20.13;51.76
65394;BME280;52002;49.760;6.512;2023-03-24T06:16:59;98710.02;;;20.12;51.77
65394;BME280;52002;49.760;6.512;2023-03-24T06:19:25;98705.81;;;20.11;51.74
65394;BME280;52002;49.760;6.512;2023-03-24T06:21:52;98707.38;;;20.11;51.87
65394;BME280;52002;49.760;6.512;2023-03-24T06:24:18;98696.83;;;20.11;51.73
65394;BME280;52002;49.760;6.512;2023-03-24T06:26:44;98696.40;;;20.12;51.76
65394;BME280;52002;49.760;6.512;2023-03-24T06:29:10;98702.55;;;20.14;52.00
65394;BME280;52002;49.760;6.512;2023-03-24T06:31:37;98696.98;;;20.16;52.02
65394;BME280;52002;49.760;6.512;2023-03-24T06:34:03;98695.71;;;20.17;51.95
65394;BME280;52002;49.760;6.512;2023-03-24T06:36:29;98699.40;;;20.20;52.18
65394;BME280;52002;49.760;6.512;2023-03-24T06:38:54;98704.98;;;20.22;52.07
65394;BME280;52002;49.760;6.512;2023-03-24T06:41:21;98706.16;;;20.23;52.05
65394;BME280;52002;49.760;6.512;2023-03-24T06:43:46;98710.73;;;20.24;52.04
65394;BME280;52002;49.760;6.512;2023-03-24T06:46:12;98716.44;;;20.24;51.91
65394;BME280;52002;49.760;6.512;2023-03-24T06:48:37;98716.88;;;20.25;52.02
65394;BME280;52002;49.760;6.512;2023-03-24T06:51:04;98721.71;;;20.25;51.83
65394;BME280;52002;49.760;6.512;2023-03-24T06:53:30;98717.21;;;20.25;51.87
65394;BME280;52002;49.760;6.512;2023-03-24T06:55:55;98721.92;;;20.25;51.98
65394;BME280;52002;49.760;6.512;2023-03-24T06:58:21;98726.61;;;20.24;51.95
65394;BME280;52002;49.760;6.512;2023-03-24T07:00:46;98726.95;;;20.26;51.87
65394;BME280;52002;49.760;6.512;2023-03-24T07:03:14;98720.64;;;20.23;51.92
65394;BME280;52002;49.760;6.512;2023-03-24T07:05:41;98724.27;;;19.80;52.08
65394;BME280;52002;49.760;6.512;2023-03-24T07:08:07;98720.54;;;19.58;52.35
65394;BME280;52002;49.760;6.512;2023-03-24T07:10:35;98719.71;;;19.40;52.50
65394;BME280;52002;49.760;6.512;2023-03-24T07:13:00;98721.92;;;19.21;52.80
65394;BME280;52002;49.760;6.512;2023-03-24T07:15:28;98727.15;;;19.01;52.99
65394;BME280;52002;49.760;6.512;2023-03-24T07:17:54;98728.95;;;18.75;53.55
65394;BME280;52002;49.760;6.512;2023-03-24T07:20:19;98741.75;;;18.76;53.51
65394;BME280;52002;49.760;6.512;2023-03-24T07:22:46;98752.53;;;18.85;53.56
65394;BME280;52002;49.760;6.512;2023-03-24T07:25:11;98760.14;;;18.94;53.57
65394;BME280;52002;49.760;6.512;2023-03-24T07:27:39;98766.63;;;19.03;53.53
65394;BME280;52002;49.760;6.512;2023-03-24T07:30:06;98772.14;;;19.11;53.58
65394;BME280;52002;49.760;6.512;2023-03-24T07:32:32;98763.11;;;19.18;53.49
65394;BME280;52002;49.760;6.512;2023-03-24T07:35:04;98760.74;;;19.26;53.44
65394;BME280;52002;49.760;6.512;2023-03-24T07:37:30;98769.13;;;19.32;53.34
65394;BME280;52002;49.760;6.512;2023-03-24T07:39:56;98771.59;;;19.36;53.31
65394;BME280;52002;49.760;6.512;2023-03-24T07:42:21;98771.13;;;19.40;53.25
65394;BME280;52002;49.760;6.512;2023-03-24T07:44:46;98769.50;;;19.45;53.13
65394;BME280;52002;49.760;6.512;2023-03-24T07:47:11;98780.31;;;19.49;53.08
65394;BME280;52002;49.760;6.512;2023-03-24T07:49:37;98794.83;;;19.54;53.05
65394;BME280;52002;49.760;6.512;2023-03-24T07:52:02;98813.04;;;19.59;52.97
65394;BME280;52002;49.760;6.512;2023-03-24T07:54:31;98837.27;;;19.64;52.89
65394;BME280;52002;49.760;6.512;2023-03-24T07:56:58;98839.41;;;19.68;52.80
65394;BME280;52002;49.760;6.512;2023-03-24T07:59:23;98829.67;;;19.76;52.72
65394;BME280;52002;49.760;6.512;2023-03-24T08:01:49;98825.29;;;19.80;52.72
65394;BME280;52002;49.760;6.512;2023-03-24T08:04:14;98828.34;;;19.82;52.59
65394;BME280;52002;49.760;6.512;2023-03-24T08:06:42;98834.23;;;19.85;52.46
65394;BME280;52002;49.760;6.512;2023-03-24T08:09:07;98840.13;;;19.90;52.46
65394;BME280;52002;49.760;6.512;2023-03-24T08:11:33;98846.80;;;19.92;52.47
65394;BME280;52002;49.760;6.512;2023-03-24T08:14:00;98862.46;;;19.94;52.35
65394;BME280;52002;49.760;6.512;2023-03-24T08:16:25;98875.07;;;19.95;52.30
65394;BME280;52002;49.760;6.512;2023-03-24T08:18:51;98877.71;;;19.97;52.25
65394;BME280;52002;49.760;6.512;2023-03-24T08:21:17;98876.64;;;19.99;52.22
65394;BME280;52002;49.760;6.512;2023-03-24T08:23:43;98878.41;;;20.00;52.16
65394;BME280;52002;49.760;6.512;2023-03-24T08:26:08;98876.29;;;20.00;52.20
65394;BME280;52002;49.760;6.512;2023-03-24T08:28:36;98878.48;;;20.02;52.12
65394;BME280;52002;49.760;6.512;2023-03-24T08:31:03;98881.89;;;20.03;52.17
65394;BME280;52002;49.760;6.512;2023-03-24T08:33:28;98881.69;;;20.03;52.13
65394;BME280;52002;49.760;6.512;2023-03-24T08:35:54;98881.88;;;20.03;52.13
65394;BME280;52002;49.760;6.512;2023-03-24T08:38:23;98882.02;;;20.04;52.17
65394;BME280;52002;49.760;6.512;2023-03-24T08:40:59;98881.55;;;20.04;52.10
65394;BME280;52002;49.760;6.512;2023-03-24T08:43:28;98884.60;;;20.05;52.07
65394;BME280;52002;49.760;6.512;2023-03-24T08:45:55;98885.81;;;20.02;52.23
65394;BME280;52002;49.760;6.512;2023-03-24T08:48:20;98884.06;;;20.03;52.26
65394;BME280;52002;49.760;6.512;2023-03-24T08:50:47;98891.61;;;20.04;52.17
65394;BME280;52002;49.760;6.512;2023-03-24T08:53:13;98897.94;;;20.03;52.24
65394;BME280;52002;49.760;6.512;2023-03-24T08:55:38;98911.07;;;20.02;52.30
65394;BME280;52002;49.760;6.512;2023-03-24T08:58:08;98918.06;;;20.03;52.34
65394;BME280;52002;49.760;6.512;2023-03-24T09:00:37;98915.11;;;20.02;52.46
65394;BME280;52002;49.760;6.512;2023-03-24T09:03:02;98922.08;;;20.01;52.28
65394;BME280;52002;49.760;6.512;2023-03-24T09:05:27;98930.36;;;20.03;52.33
65394;BME280;52002;49.760;6.512;2023-03-24T09:07:53;98934.17;;;20.05;52.23
65394;BME280;52002;49.760;6.512;2023-03-24T09:10:19;98938.36;;;20.07;52.15
65394;BME280;52002;49.760;6.512;2023-03-24T09:12:47;98941.51;;;20.09;52.26
65394;BME280;52002;49.760;6.512;2023-03-24T09:15:13;98945.62;;;20.11;52.24
65394;BME280;52002;49.760;6.512;2023-03-24T09:17:39;98943.90;;;20.12;52.12
65394;BME280;52002;49.760;6.512;2023-03-24T09:20:07;98938.64;;;20.15;52.12
65394;BME280;52002;49.760;6.512;2023-03-24T09:22:39;98927.77;;;20.15;52.15
65394;BME280;52002;49.760;6.512;2023-03-24T09:25:06;98932.02;;;20.16;52.17
65394;BME280;52002;49.760;6.512;2023-03-24T09:27:32;98934.52;;;20.19;51.98
65394;BME280;52002;49.760;6.512;2023-03-24T09:29:57;98930.29;;;20.21;51.98
65394;BME280;52002;49.760;6.512;2023-03-24T09:32:23;98931.59;;;20.20;52.00
65394;BME280;52002;49.760;6.512;2023-03-24T09:34:48;98930.46;;;20.21;52.03
65394;BME280;52002;49.760;6.512;2023-03-24T09:37:13;98930.33;;;20.22;51.94
65394;BME280;52002;49.760;6.512;2023-03-24T09:39:39;98940.44;;;20.23;51.91
65394;BME280;52002;49.760;6.512;2023-03-24T09:42:06;98948.31;;;20.23;52.06
65394;BME280;52002;49.760;6.512;2023-03-24T09:44:37;98947.74;;;20.22;52.07
65394;BME280;52002;49.760;6.512;2023-03-24T09:47:26;98942.23;;;20.23;52.10
65394;BME280;52002;49.760;6.512;2023-03-24T09:49:51;98940.52;;;20.24;51.97
65394;BME280;52002;49.760;6.512;2023-03-24T09:52:22;98941.79;;;20.22;52.05
65394;BME280;52002;49.760;6.512;2023-03-24T09:54:57;98950.70;;;20.22;51.99
65394;BME280;52002;49.760;6.512;2023-03-24T09:57:40;98945.08;;;20.22;51.96
65394;BME280;52002;49.760;6.512;2023-03-24T10:00:20;98951.29;;;20.22;52.12
65394;BME280;52002;49.760;6.512;2023-03-24T10:02:46;98945.89;;;20.20;52.13
65394;BME280;52002;49.760;6.512;2023-03-24T10:05:36;98947.69;;;20.20;52.11
65394;BME280;52002;49.760;6.512;2023-03-24T10:08:20;98952.05;;;20.20;52.17
65394;BME280;52002;49.760;6.512;2023-03-24T10:11:10;98962.41;;;20.20;52.25
65394;BME280;52002;49.760;6.512;2023-03-24T10:16:44;98965.83;;;20.18;52.18
65394;BME280;52002;49.760;6.512;2023-03-24T10:19:35;98978.51;;;20.18;52.31
65394;BME280;52002;49.760;6.512;2023-03-24T10:25:00;98979.60;;;20.16;52.15
65394;BME280;52002;49.760;6.512;2023-03-24T10:27:34;98978.31;;;20.17;52.04
65394;BME280;52002;49.760;6.512;2023-03-24T10:30:29;98983.73;;;20.17;52.25
65394;BME280;52002;49.760;6.512;2023-03-24T10:32:55;98992.41;;;20.15;52.23
65394;BME280;52002;49.760;6.512;2023-03-24T10:35:27;98993.10;;;20.14;52.30
65394;BME280;52002;49.760;6.512;2023-03-24T10:37:57;98997.01;;;20.15;52.14
65394;BME280;52002;49.760;6.512;2023-03-24T10:40:32;98994.81;;;20.14;52.31
65394;BME280;52002;49.760;6.512;2023-03-24T10:43:00;98989.79;;;20.12;52.30
65394;BME280;52002;49.760;6.512;2023-03-24T10:45:48;98994.67;;;20.11;52.41
65394;BME280;52002;49.760;6.512;2023-03-24T10:51:05;98985.89;;;20.14;52.06
65394;BME280;52002;49.760;6.512;2023-03-24T10:53:30;98983.23;;;20.15;52.13
65394;BME280;52002;49.760;6.512;2023-03-24T10:55:57;98974.23;;;20.16;52.02
65394;BME280;52002;49.760;6.512;2023-03-24T11:00:48;98975.73;;;20.21;51.79
65394;BME280;52002;49.760;6.512;2023-03-24T11:03:16;98975.20;;;20.24;51.72
65394;BME280;52002;49.760;6.512;2023-03-24T11:05:47;98974.86;;;20.25;51.69
65394;BME280;52002;49.760;6.512;2023-03-24T11:10:42;98972.56;;;20.28;51.50
65394;BME280;52002;49.760;6.512;2023-03-24T11:13:34;98965.02;;;20.29;51.68
65394;BME280;52002;49.760;6.512;2023-03-24T11:16:15;98979.02;;;20.28;51.54
65394;BME280;52002;49.760;6.512;2023-03-24T11:19:04;98983.44;;;20.29;51.46
65394;BME280;52002;49.760;6.512;2023-03-24T11:21:33;98995.62;;;20.30;51.47
65394;BME280;52002;49.760;6.512;2023-03-24T11:24:10;98996.95;;;20.29;51.49
65394;BME280;52002;49.760;6.512;2023-03-24T11:26:38;98995.58;;;20.29;51.45
65394;BME280;52002;49.760;6.512;2023-03-24T11:29:18;98992.83;;;20.29;51.52
65394;BME280;52002;49.760;6.512;2023-03-24T11:31:54;98993.75;;;20.29;51.43
65394;BME280;52002;49.760;6.512;2023-03-24T11:34:31;98990.28;;;20.28;51.46
65394;BME280;52002;49.760;6.512;2023-03-24T11:37:01;98988.73;;;20.28;51.60
65394;BME280;52002;49.760;6.512;2023-03-24T11:39:32;98990.58;;;20.28;51.59
65394;BME280;52002;49.760;6.512;2023-03-24T11:44:49;98996.02;;;20.27;51.73
65394;BME280;52002;49.760;6.512;2023-03-24T11:47:29;98998.42;;;20.28;51.77
65394;BME280;52002;49.760;6.512;2023-03-24T11:55:43;98995.23;;;20.26;51.76
65394;BME280;52002;49.760;6.512;2023-03-24T12:01:34;98997.16;;;20.29;51.74
65394;BME280;52002;49.760;6.512;2023-03-24T12:17:27;98991.19;;;20.22;51.65
65394;BME280;52002;49.760;6.512;2023-03-24T12:20:19;98983.49;;;20.20;51.69
65394;BME280;52002;49.760;6.512;2023-03-24T12:22:59;98986.25;;;20.20;51.69
65394;BME280;52002;49.760;6.512;2023-03-24T12:36:14;98981.59;;;20.12;51.96
65394;BME280;52002;49.760;6.512;2023-03-24T12:39:09;98979.67;;;20.11;52.06
65394;BME280;52002;49.760;6.512;2023-03-24T12:41:53;98980.69;;;20.09;52.12
65394;BME280;52002;49.760;6.512;2023-03-24T12:47:28;98978.74;;;20.08;52.21
65394;BME280;52002;49.760;6.512;2023-03-24T12:50:29;98972.28;;;20.07;52.07
65394;BME280;52002;49.760;6.512;2023-03-24T12:56:03;98971.67;;;20.05;52.16
65394;BME280;52002;49.760;6.512;2023-03-24T12:58:50;98975.11;;;20.08;51.92
65394;BME280;52002;49.760;6.512;2023-03-24T13:06:47;98975.11;;;20.13;51.68
65394;BME280;52002;49.760;6.512;2023-03-24T13:09:39;98981.30;;;20.15;51.62
65394;BME280;52002;49.760;6.512;2023-03-24T13:12:14;98976.71;;;20.18;51.45
65394;BME280;52002;49.760;6.512;2023-03-24T13:14:45;98975.41;;;20.20;51.58
65394;BME280;52002;49.760;6.512;2023-03-24T13:17:43;98971.23;;;20.21;51.41
65394;BME280;52002;49.760;6.512;2023-03-24T13:20:06;98972.92;;;20.23;51.40
65394;BME280;52002;49.760;6.512;2023-03-24T13:22:37;98965.39;;;20.24;51.48
65394;BME280;52002;49.760;6.512;2023-03-24T13:25:09;98966.04;;;20.23;51.45
65394;BME280;52002;49.760;6.512;2023-03-24T13:27:46;98967.88;;;20.25;51.38
65394;BME280;52002;49.760;6.512;2023-03-24T13:30:29;98966.66;;;20.26;51.58
65394;BME280;52002;49.760;6.512;2023-03-24T13:33:15;98963.41;;;20.26;51.61
65394;BME280;52002;49.760;6.512;2023-03-24T13:38:37;98956.58;;;20.26;51.38
65394;BME280;52002;49.760;6.512;2023-03-24T13:41:11;98959.95;;;20.27;51.41
65394;BME280;52002;49.760;6.512;2023-03-24T13:43:46;98957.78;;;20.26;51.50
65394;BME280;52002;49.760;6.512;2023-03-24T13:46:12;98959.96;;;20.27;51.49
65394;BME280;52002;49.760;6.512;2023-03-24T13:48:41;98955.54;;;20.26;51.50
65394;BME280;52002;49.760;6.512;2023-03-24T13:51:39;98953.00;;;20.26;51.57
65394;BME280;52002;49.760;6.512;2023-03-24T13:54:15;98966.39;;;20.24;51.58
65394;BME280;52002;49.760;6.512;2023-03-24T13:59:30;98971.66;;;20.23;51.71
65394;BME280;52002;49.760;6.512;2023-03-24T14:15:50;98993.25;;;20.20;51.71
65394;BME280;52002;49.760;6.512;2023-03-24T14:21:06;98966.52;;;20.16;51.72
65394;BME280;52002;49.760;6.512;2023-03-24T14:23:48;98968.84;;;20.16;51.67
65394;BME280;52002;49.760;6.512;2023-03-24T14:28:48;98962.35;;;20.13;51.89
65394;BME280;52002;49.760;6.512;2023-03-24T14:36:24;98947.57;;;20.12;51.69
65394;BME280;52002;49.760;6.512;2023-03-24T14:38:51;98943.30;;;20.13;51.54
65394;BME280;52002;49.760;6.512;2023-03-24T14:41:27;98950.59;;;20.13;51.53
65394;BME280;52002;49.760;6.512;2023-03-24T14:43:59;98944.89;;;20.15;51.38
65394;BME280;52002;49.760;6.512;2023-03-24T14:46:48;98946.88;;;20.17;51.31
65394;BME280;52002;49.760;6.512;2023-03-24T14:54:36;98936.52;;;20.20;51.23
65394;BME280;52002;49.760;6.512;2023-03-24T14:57:03;98940.40;;;20.23;51.20
65394;BME280;52002;49.760;6.512;2023-03-24T14:59:54;98934.89;;;20.24;51.09
65394;BME280;52002;49.760;6.512;2023-03-24T15:02:43;98941.63;;;20.25;51.21
65394;BME280;52002;49.760;6.512;2023-03-24T15:05:29;98936.91;;;20.25;51.13
65394;BME280;52002;49.760;6.512;2023-03-24T15:08:16;98927.82;;;20.25;51.13
65394;BME280;52002;49.760;6.512;2023-03-24T15:16:14;98919.99;;;20.24;51.09
65394;BME280;52002;49.760;6.512;2023-03-24T15:23:51;98916.52;;;20.22;51.38
65394;BME280;52002;49.760;6.512;2023-03-24T15:26:19;98912.90;;;20.22;51.38
65394;BME280;52002;49.760;6.512;2023-03-24T15:28:52;98909.17;;;20.23;51.23
65394;BME280;52002;49.760;6.512;2023-03-24T15:31:17;98914.21;;;20.23;51.35
65394;BME280;52002;49.760;6.512;2023-03-24T15:33:45;98917.39;;;20.22;51.39
65394;BME280;52002;49.760;6.512;2023-03-24T15:36:15;98916.90;;;20.22;51.45
65394;BME280;52002;49.760;6.512;2023-03-24T15:38:46;98911.88;;;20.23;51.45
65394;BME280;52002;49.760;6.512;2023-03-24T15:41:14;98910.98;;;20.19;51.52
65394;BME280;52002;49.760;6.512;2023-03-24T15:43:44;98913.59;;;20.24;51.55
65394;BME280;52002;49.760;6.512;2023-03-24T15:46:21;98915.20;;;20.24;51.30
65394;BME280;52002;49.760;6.512;2023-03-24T15:48:47;98917.11;;;20.24;51.43
65394;BME280;52002;49.760;6.512;2023-03-24T15:51:12;98914.61;;;20.24;51.60
65394;BME280;52002;49.760;6.512;2023-03-24T15:53:47;98916.33;;;20.25;51.57
65394;BME280;52002;49.760;6.512;2023-03-24T15:56:30;98918.65;;;20.25;51.44
65394;BME280;52002;49.760;6.512;2023-03-24T15:59:11;98916.90;;;20.24;51.53
65394;BME280;52002;49.760;6.512;2023-03-24T16:01:37;98920.84;;;20.24;51.63
65394;BME280;52002;49.760;6.512;2023-03-24T16:04:13;98914.15;;;20.21;51.54
65394;BME280;52002;49.760;6.512;2023-03-24T16:06:44;98930.58;;;20.21;51.65